To NAV CANADA Home Page Login to a new session Search on AWWS site Feedback and Comments Disclaimer Vers la page française équivalente Tips FAQ What's new on the site To the Forecasts and Observations / NOTAM section To "File a Flight Plan" website Publications and other links Update of the User's profile FIC Telephone Numbers My Weather Data Folder Route Weather Data Regional Weather Data Local Weather Data To the Forecasts and Observations / NOTAM section
Request Generated 04/18/2015 at 07:11:47 UTC . Weather information available at that time is displayed.

METAR/TAF

GRANDE PRAIRIE/AB    

METAR CYQU 180700Z 27023G32KT 15SM -SHRA FEW015 BKN040TCU OVC070
03/01 A3021 RMK CF2TCU4AC2 PRESRR SLP254=
SPECI CYQU 180652Z 27027G32KT 15SM -SHRA SCT015 BKN035TCU OVC070
03/01 A3020 RMK CF3TCU3AC2 SLP252=
METAR CYQU 180600Z 26013KT 15SM FEW015 SCT035TCU OVC075 02/01 A3019
RMK CF1TCU3AC4 SLP248=
METAR CYQU 180500Z 28020KT 15SM -SHRA FEW013 BKN032TCU OVC060 03/01
A3017 RMK CF2TCU5SC1 SLP244=

TAF CYQU 180638Z 1807/1819 28020KT P6SM FEW015 BKN030 TEMPO 1807/1809
P6SM -SHRA BKN015 BKN030
FM180900 27015KT P6SM BKN060
FM181200 29012KT P6SM FEW060
RMK NXT FCST BY 181300Z=
Your time UTC time
Weather data provided by Environment Canada and NAV CANADA